createdAt,value
2023-12-30T00:01:54.532Z,8.65
2023-12-30T00:04:23.881Z,8.61
2023-12-30T00:06:52.455Z,8.66
2023-12-30T00:09:20.072Z,8.60
2023-12-30T00:11:47.658Z,8.67
2023-12-30T00:14:15.501Z,8.68
2023-12-30T00:16:43.099Z,8.80
2023-12-30T00:19:10.776Z,8.66
2023-12-30T00:21:39.943Z,8.73
2023-12-30T00:24:07.719Z,8.72
2023-12-30T00:26:35.231Z,8.69
2023-12-30T00:29:09.776Z,8.73
2023-12-30T00:31:37.403Z,8.75
2023-12-30T00:34:05.066Z,8.80
2023-12-30T00:36:32.775Z,8.78
2023-12-30T00:39:01.753Z,8.99
2023-12-30T00:41:29.418Z,8.98
2023-12-30T00:43:56.983Z,9.00
2023-12-30T00:46:25.123Z,8.88
2023-12-30T00:48:57.307Z,8.97
2023-12-30T00:51:27.099Z,8.94
2023-12-30T00:53:54.701Z,8.94
2023-12-30T00:56:23.707Z,8.94
2023-12-30T00:58:51.275Z,8.88
2023-12-30T01:01:18.973Z,8.84
2023-12-30T01:03:46.789Z,8.81
2023-12-30T01:06:14.454Z,8.85
2023-12-30T01:08:42.021Z,8.91
2023-12-30T01:11:09.582Z,8.86
2023-12-30T01:13:38.527Z,8.89
2023-12-30T01:16:07.480Z,8.85
2023-12-30T01:18:35.155Z,8.76
2023-12-30T01:21:04.765Z,8.76
2023-12-30T01:23:33.559Z,8.73
2023-12-30T01:26:01.238Z,8.69
2023-12-30T01:28:29.239Z,8.68
2023-12-30T01:30:58.286Z,8.76
2023-12-30T01:33:26.180Z,8.75
2023-12-30T01:35:53.758Z,8.76
2023-12-30T01:38:21.264Z,8.71
2023-12-30T01:40:49.171Z,8.70
2023-12-30T01:43:26.650Z,8.80
2023-12-30T01:45:55.078Z,8.77
2023-12-30T01:48:24.614Z,8.73
2023-12-30T01:50:54.309Z,8.70
2023-12-30T01:53:23.514Z,8.76
2023-12-30T01:55:52.740Z,8.84
2023-12-30T01:58:20.702Z,8.83
2023-12-30T02:00:49.618Z,8.72
2023-12-30T02:03:18.706Z,8.79
2023-12-30T02:05:48.665Z,8.81
2023-12-30T02:08:20.309Z,8.80
2023-12-30T02:10:48.278Z,8.70
2023-12-30T02:13:15.936Z,8.65
2023-12-30T02:15:43.537Z,8.61
2023-12-30T02:18:11.269Z,8.65
2023-12-30T02:20:38.893Z,8.57
2023-12-30T02:23:07.809Z,8.57
2023-12-30T02:25:35.474Z,8.54
2023-12-30T02:28:03.232Z,8.50
2023-12-30T02:30:31.896Z,8.45
2023-12-30T02:32:59.864Z,8.38
2023-12-30T02:35:28.710Z,8.41
2023-12-30T02:37:56.665Z,8.51
2023-12-30T02:40:25.619Z,8.53
2023-12-30T02:42:53.585Z,8.48
2023-12-30T02:45:21.295Z,8.47
2023-12-30T02:47:49.461Z,8.43
2023-12-30T02:50:17.113Z,8.34
2023-12-30T02:52:44.792Z,8.34
2023-12-30T02:55:12.532Z,8.33
2023-12-30T02:57:48.779Z,8.32
2023-12-30T03:00:18.746Z,8.26
2023-12-30T03:02:47.226Z,8.23
2023-12-30T03:05:15.662Z,8.29
2023-12-30T03:07:43.815Z,8.29
2023-12-30T03:10:12.900Z,8.27
2023-12-30T03:12:43.258Z,8.30
2023-12-30T03:15:11.518Z,8.34
2023-12-30T03:17:39.162Z,8.28
2023-12-30T03:20:11.021Z,8.27
2023-12-30T03:22:39.121Z,8.25
2023-12-30T03:25:07.828Z,8.25
2023-12-30T03:27:35.418Z,8.26
2023-12-30T03:30:05.390Z,8.27
2023-12-30T03:32:33.046Z,8.24
2023-12-30T03:35:00.741Z,8.20
2023-12-30T03:37:28.484Z,8.19
2023-12-30T03:39:56.233Z,8.14
2023-12-30T03:42:23.839Z,8.03
2023-12-30T03:44:51.421Z,7.99
2023-12-30T03:47:21.853Z,8.01
2023-12-30T03:49:49.671Z,7.94
2023-12-30T03:52:17.527Z,7.96
2023-12-30T03:54:45.138Z,7.85
2023-12-30T03:57:15.229Z,7.86
2023-12-30T03:59:42.806Z,7.78
2023-12-30T04:02:11.138Z,7.82
2023-12-30T04:04:42.766Z,7.87
2023-12-30T04:07:10.512Z,7.78
2023-12-30T04:09:38.082Z,7.78
2023-12-30T04:12:06.259Z,7.78
2023-12-30T04:14:34.084Z,7.78
2023-12-30T04:17:01.660Z,7.85
2023-12-30T04:19:29.384Z,7.77
2023-12-30T04:21:58.331Z,7.71
2023-12-30T04:24:25.970Z,7.74
2023-12-30T04:26:53.552Z,7.72
2023-12-30T04:29:21.328Z,7.73
2023-12-30T04:31:49.104Z,7.75
2023-12-30T04:34:16.905Z,7.62
2023-12-30T04:36:44.582Z,7.69
2023-12-30T04:39:13.432Z,7.76
2023-12-30T04:41:42.591Z,7.79
2023-12-30T04:44:10.626Z,7.77
2023-12-30T04:46:38.504Z,7.73
2023-12-30T04:49:06.156Z,7.70
2023-12-30T04:51:37.700Z,7.70
2023-12-30T04:54:05.503Z,7.68
2023-12-30T04:56:34.409Z,7.68
2023-12-30T04:59:02.017Z,7.63
2023-12-30T05:01:31.606Z,7.64
2023-12-30T05:03:59.329Z,7.59
2023-12-30T05:06:26.942Z,7.57
2023-12-30T05:08:55.090Z,7.57
2023-12-30T05:11:24.835Z,7.59
2023-12-30T05:13:53.940Z,7.57
2023-12-30T05:16:21.651Z,7.55
2023-12-30T05:18:49.381Z,7.56
2023-12-30T05:21:17.793Z,7.56
2023-12-30T05:23:45.919Z,7.60
2023-12-30T05:26:14.583Z,7.57
2023-12-30T05:28:42.528Z,7.48
2023-12-30T05:31:11.578Z,7.55
2023-12-30T05:33:39.359Z,7.55
2023-12-30T05:36:08.236Z,7.59
2023-12-30T05:38:35.831Z,7.63
2023-12-30T05:41:03.401Z,7.63
2023-12-30T05:43:31.347Z,7.67
2023-12-30T05:45:59.064Z,7.48
2023-12-30T05:48:28.313Z,7.49
2023-12-30T05:50:55.882Z,7.51
2023-12-30T05:53:23.437Z,7.48
2023-12-30T05:55:52.755Z,7.49
2023-12-30T05:58:20.472Z,7.48
2023-12-30T06:00:48.137Z,7.49
2023-12-30T06:03:15.767Z,7.45
2023-12-30T06:05:44.829Z,7.48
2023-12-30T06:08:12.582Z,7.41
2023-12-30T06:10:40.232Z,7.44
2023-12-30T06:13:07.879Z,7.46
2023-12-30T06:15:35.442Z,7.42
2023-12-30T06:18:03.167Z,7.42
2023-12-30T06:20:30.723Z,7.39
2023-12-30T06:22:59.910Z,7.31
2023-12-30T06:25:27.797Z,7.26
2023-12-30T06:27:55.391Z,7.27
2023-12-30T06:30:23.052Z,7.20
2023-12-30T06:32:50.651Z,7.23
2023-12-30T06:35:18.520Z,7.19
2023-12-30T06:37:46.143Z,7.17
2023-12-30T06:40:15.411Z,7.20
2023-12-30T06:42:46.101Z,7.22
2023-12-30T06:45:14.163Z,7.12
2023-12-30T06:47:42.935Z,7.09
2023-12-30T06:50:13.163Z,7.11
2023-12-30T06:52:40.728Z,7.11
2023-12-30T06:55:18.581Z,7.17
2023-12-30T06:57:52.239Z,7.16
2023-12-30T07:00:28.006Z,7.14
2023-12-30T07:03:03.822Z,7.07
2023-12-30T07:05:44.687Z,6.98
2023-12-30T07:08:14.246Z,6.95
2023-12-30T07:10:51.108Z,6.94
2023-12-30T07:13:24.278Z,6.89
2023-12-30T07:15:57.338Z,6.77
2023-12-30T07:18:27.833Z,6.88
2023-12-30T07:21:00.773Z,6.87
2023-12-30T07:23:37.445Z,6.84
2023-12-30T07:26:13.938Z,6.86
2023-12-30T07:28:48.759Z,6.84
2023-12-30T07:31:23.983Z,6.81
2023-12-30T07:33:55.995Z,6.83
2023-12-30T07:36:29.349Z,6.86
2023-12-30T07:39:10.658Z,6.78
2023-12-30T07:41:50.398Z,6.71
2023-12-30T07:44:57.132Z,6.77
2023-12-30T07:47:33.226Z,6.68
2023-12-30T07:50:08.774Z,6.53
2023-12-30T07:52:41.775Z,6.47
2023-12-30T07:55:24.828Z,6.52
2023-12-30T07:57:55.665Z,6.55
2023-12-30T08:00:34.787Z,6.53
2023-12-30T08:03:05.420Z,6.47
2023-12-30T08:05:57.531Z,6.42
2023-12-30T08:11:33.777Z,6.33
2023-12-30T08:14:06.647Z,6.45
2023-12-30T08:16:38.123Z,6.52
2023-12-30T08:19:05.914Z,6.52
2023-12-30T08:21:33.964Z,6.42
2023-12-30T08:24:02.608Z,6.42
2023-12-30T08:26:30.236Z,6.45
2023-12-30T08:28:57.846Z,6.48
2023-12-30T08:31:25.604Z,6.49
2023-12-30T08:33:54.552Z,6.53
2023-12-30T08:36:22.631Z,6.49
2023-12-30T08:38:50.292Z,6.56
2023-12-30T08:41:20.766Z,6.56
2023-12-30T08:43:50.293Z,6.75
2023-12-30T08:46:17.906Z,6.82
2023-12-30T08:48:45.501Z,6.57
2023-12-30T08:51:15.077Z,6.59
2023-12-30T08:53:42.692Z,6.59
2023-12-30T08:56:10.321Z,6.56
2023-12-30T08:58:38.108Z,6.54
2023-12-30T09:01:05.908Z,6.55
2023-12-30T09:03:33.639Z,6.61
2023-12-30T09:06:01.364Z,6.64
2023-12-30T09:08:30.449Z,6.71
2023-12-30T09:10:59.759Z,6.81
2023-12-30T09:13:27.420Z,6.85
2023-12-30T09:15:55.087Z,6.85
2023-12-30T09:18:22.813Z,6.90
2023-12-30T09:20:50.430Z,6.94
2023-12-30T09:23:18.363Z,7.04
2023-12-30T09:25:47.328Z,7.07
2023-12-30T09:28:15.143Z,7.10
2023-12-30T09:30:42.727Z,7.12
2023-12-30T09:33:12.239Z,7.13
2023-12-30T09:35:40.799Z,7.19
2023-12-30T09:38:08.463Z,7.15
2023-12-30T09:40:36.188Z,7.14
2023-12-30T09:43:07.141Z,7.19
2023-12-30T09:45:39.113Z,7.19
2023-12-30T09:48:08.988Z,7.23
2023-12-30T09:50:36.926Z,7.23
2023-12-30T09:53:05.190Z,7.17
2023-12-30T09:55:33.035Z,7.34
2023-12-30T09:58:02.263Z,7.43
2023-12-30T10:00:33.540Z,7.42
2023-12-30T10:03:02.936Z,7.42
2023-12-30T10:05:30.820Z,7.28
2023-12-30T10:07:59.437Z,7.38
2023-12-30T10:10:42.900Z,7.52
2023-12-30T10:13:12.991Z,7.49
2023-12-30T10:15:44.212Z,7.55
2023-12-30T10:18:14.011Z,7.48
2023-12-30T10:20:44.588Z,7.56
2023-12-30T10:23:12.700Z,7.60
2023-12-30T10:25:40.917Z,7.66
2023-12-30T10:28:09.113Z,7.72
2023-12-30T10:30:37.311Z,7.74
2023-12-30T10:33:11.209Z,7.75
2023-12-30T10:35:40.900Z,7.81
2023-12-30T10:38:11.293Z,7.92
2023-12-30T10:40:41.172Z,7.90
2023-12-30T10:43:10.616Z,7.90
2023-12-30T10:45:38.808Z,8.00
2023-12-30T10:48:09.130Z,8.00
2023-12-30T10:50:41.942Z,8.09
2023-12-30T10:53:13.509Z,8.10
2023-12-30T10:55:49.812Z,8.11
2023-12-30T10:58:20.740Z,8.14
2023-12-30T11:00:53.822Z,8.19
2023-12-30T11:03:23.239Z,8.11
2023-12-30T11:06:04.519Z,8.13
2023-12-30T11:08:32.300Z,8.14
2023-12-30T11:11:01.183Z,8.10
2023-12-30T11:13:35.929Z,8.01
2023-12-30T11:16:17.031Z,8.12
2023-12-30T11:18:50.954Z,8.06
2023-12-30T11:21:38.771Z,8.04
2023-12-30T11:24:08.318Z,8.00
2023-12-30T11:26:37.723Z,8.03
2023-12-30T11:29:06.133Z,8.12
2023-12-30T11:31:37.036Z,8.21
2023-12-30T11:34:05.691Z,8.24
2023-12-30T11:36:33.463Z,8.20
2023-12-30T11:39:04.502Z,8.32
2023-12-30T11:41:33.198Z,8.27
2023-12-30T11:44:05.427Z,8.33
2023-12-30T11:46:39.054Z,8.34
2023-12-30T11:49:07.746Z,8.37
2023-12-30T11:51:35.587Z,8.29
2023-12-30T11:54:05.231Z,8.25
2023-12-30T11:56:33.795Z,8.22
2023-12-30T11:59:01.880Z,8.26
2023-12-30T12:01:29.811Z,8.31
2023-12-30T12:03:57.668Z,8.38
2023-12-30T12:06:25.585Z,8.41
2023-12-30T12:08:53.195Z,8.43
2023-12-30T12:11:22.196Z,8.48
2023-12-30T12:13:49.986Z,8.52
2023-12-30T12:16:17.589Z,8.65
2023-12-30T12:18:46.306Z,8.53
2023-12-30T12:21:14.997Z,8.50
2023-12-30T12:23:43.506Z,8.34
2023-12-30T12:26:11.800Z,8.50
2023-12-30T12:28:41.467Z,8.34
2023-12-30T12:31:09.269Z,8.34
2023-12-30T12:33:38.409Z,8.42
2023-12-30T12:36:06.859Z,8.50
2023-12-30T12:38:34.784Z,8.51
2023-12-30T12:41:02.429Z,8.54
2023-12-30T12:43:31.295Z,8.54
2023-12-30T12:46:00.480Z,8.53
2023-12-30T12:48:28.108Z,8.56
2023-12-30T12:50:56.748Z,8.57
2023-12-30T12:53:25.026Z,8.56
2023-12-30T12:55:52.688Z,8.58
2023-12-30T12:58:20.481Z,8.57
2023-12-30T13:00:48.942Z,8.53
2023-12-30T13:03:18.305Z,8.70
2023-12-30T13:05:46.413Z,8.60
2023-12-30T13:08:15.706Z,8.68
2023-12-30T13:10:48.322Z,8.66
2023-12-30T13:13:15.979Z,8.66
2023-12-30T13:15:45.131Z,8.67
2023-12-30T13:18:14.226Z,8.74
2023-12-30T13:20:46.553Z,8.72
2023-12-30T13:23:14.976Z,8.70
2023-12-30T13:25:42.701Z,8.84
2023-12-30T13:28:12.785Z,8.87
2023-12-30T13:30:41.590Z,8.85
2023-12-30T13:33:11.769Z,8.85
2023-12-30T13:35:41.752Z,8.90
2023-12-30T13:38:13.705Z,8.84
2023-12-30T13:40:42.831Z,8.78
2023-12-30T13:43:11.733Z,8.80
2023-12-30T13:45:44.878Z,8.81
2023-12-30T13:48:46.219Z,8.78
2023-12-30T13:51:17.128Z,8.79
2023-12-30T13:53:46.197Z,8.75
2023-12-30T13:56:20.561Z,8.72
2023-12-30T13:58:50.025Z,8.72
2023-12-30T14:01:21.094Z,8.67
2023-12-30T14:03:49.140Z,8.69
2023-12-30T14:06:20.839Z,8.74
2023-12-30T14:08:50.472Z,8.76
2023-12-30T14:11:32.964Z,8.73
2023-12-30T14:14:04.171Z,8.70
2023-12-30T14:16:32.518Z,8.60
2023-12-30T14:19:00.138Z,8.51
2023-12-30T14:21:27.759Z,8.51
2023-12-30T14:23:56.618Z,8.52
2023-12-30T14:26:24.489Z,8.44
2023-12-30T14:28:52.220Z,8.43
2023-12-30T14:31:20.026Z,8.51
2023-12-30T14:33:47.753Z,8.51
2023-12-30T14:36:17.105Z,8.47
2023-12-30T14:38:44.740Z,8.35
2023-12-30T14:41:13.673Z,8.29
2023-12-30T14:43:41.526Z,8.33
2023-12-30T14:46:11.793Z,8.33
2023-12-30T14:48:39.496Z,8.24
2023-12-30T14:51:08.375Z,8.22
2023-12-30T14:53:37.401Z,8.18
2023-12-30T14:56:05.638Z,8.18
2023-12-30T14:58:34.807Z,8.16
2023-12-30T15:01:02.489Z,8.08
2023-12-30T15:03:30.251Z,8.05
2023-12-30T15:05:57.925Z,8.01
2023-12-30T15:08:25.602Z,7.90
2023-12-30T15:10:53.817Z,7.86
2023-12-30T15:13:21.498Z,7.85
2023-12-30T15:15:50.430Z,7.94
2023-12-30T15:18:18.034Z,7.88
2023-12-30T15:20:45.745Z,7.78
2023-12-30T15:23:15.953Z,7.76
2023-12-30T15:25:43.631Z,7.72
2023-12-30T15:28:11.623Z,7.73
2023-12-30T15:30:40.069Z,7.69
2023-12-30T15:33:09.491Z,7.63
2023-12-30T15:35:38.791Z,7.61
2023-12-30T15:38:06.480Z,7.62
2023-12-30T15:40:35.690Z,7.61
2023-12-30T15:43:06.345Z,7.60
2023-12-30T15:45:37.227Z,7.55
2023-12-30T15:48:08.057Z,7.49
2023-12-30T15:50:37.271Z,7.46
2023-12-30T15:53:07.039Z,7.35
2023-12-30T15:55:35.979Z,7.37
2023-12-30T15:58:04.114Z,7.29
2023-12-30T16:00:33.495Z,7.16
2023-12-30T16:03:02.716Z,7.17
2023-12-30T16:05:30.749Z,7.17
2023-12-30T16:08:00.040Z,7.10
2023-12-30T16:10:28.865Z,7.05
2023-12-30T16:12:56.563Z,7.00
2023-12-30T16:15:24.837Z,7.02
2023-12-30T16:17:52.618Z,6.99
2023-12-30T16:20:20.315Z,6.97
2023-12-30T16:22:48.029Z,6.98
2023-12-30T16:25:17.474Z,6.97
2023-12-30T16:27:46.359Z,6.96
2023-12-30T16:30:15.097Z,6.93
2023-12-30T16:32:42.977Z,6.86
2023-12-30T16:35:11.043Z,6.89
2023-12-30T16:37:38.836Z,6.83
2023-12-30T16:40:09.512Z,6.92
2023-12-30T16:42:38.964Z,6.81
2023-12-30T16:45:07.566Z,6.67
2023-12-30T16:47:37.879Z,6.60
2023-12-30T16:50:06.925Z,6.66
2023-12-30T16:52:35.070Z,6.57
2023-12-30T16:55:04.261Z,6.54
2023-12-30T16:57:32.110Z,6.49
2023-12-30T17:00:02.442Z,6.49
2023-12-30T17:02:30.068Z,6.54
2023-12-30T17:04:57.986Z,6.47
2023-12-30T17:07:27.017Z,6.42
2023-12-30T17:09:55.669Z,6.39
2023-12-30T17:12:23.250Z,6.36
2023-12-30T17:14:51.917Z,6.36
2023-12-30T17:17:20.875Z,6.35
2023-12-30T17:19:48.440Z,6.26
2023-12-30T17:22:16.130Z,6.22
2023-12-30T17:24:43.710Z,6.18
2023-12-30T17:27:11.319Z,6.08
2023-12-30T17:29:38.973Z,6.08
2023-12-30T17:32:09.192Z,6.09
2023-12-30T17:34:38.539Z,6.01
2023-12-30T17:37:06.522Z,5.97
2023-12-30T17:39:34.165Z,5.98
2023-12-30T17:42:02.431Z,5.90
2023-12-30T17:44:30.486Z,5.97
2023-12-30T17:46:58.881Z,6.16
2023-12-30T17:49:27.167Z,5.96
2023-12-30T17:51:56.075Z,5.95
2023-12-30T17:54:24.297Z,5.91
2023-12-30T17:56:52.114Z,5.90
2023-12-30T17:59:19.820Z,6.00
2023-12-30T18:01:47.412Z,6.01
2023-12-30T18:04:15.166Z,5.95
2023-12-30T18:06:42.696Z,5.92
2023-12-30T18:09:14.060Z,5.93
2023-12-30T18:11:41.629Z,5.90
2023-12-30T18:14:12.483Z,5.91
2023-12-30T18:16:40.429Z,5.88
2023-12-30T18:19:08.146Z,5.87
2023-12-30T18:21:35.835Z,5.87
2023-12-30T18:24:03.538Z,5.85
2023-12-30T18:26:32.544Z,5.83
2023-12-30T18:29:04.935Z,5.80
2023-12-30T18:31:32.666Z,5.75
2023-12-30T18:34:00.362Z,5.75
2023-12-30T18:36:28.358Z,5.71
2023-12-30T18:38:56.025Z,5.73
2023-12-30T18:41:23.576Z,5.72
2023-12-30T18:43:52.631Z,5.72
2023-12-30T18:46:20.312Z,5.64
2023-12-30T18:48:48.755Z,5.56
2023-12-30T18:51:17.032Z,5.52
2023-12-30T18:53:44.591Z,5.50
2023-12-30T18:56:12.359Z,5.53
2023-12-30T18:58:40.793Z,5.57
2023-12-30T19:01:10.447Z,5.58
2023-12-30T19:03:38.081Z,5.54
2023-12-30T19:06:05.824Z,5.48
2023-12-30T19:08:34.938Z,5.45
2023-12-30T19:11:02.457Z,5.50
2023-12-30T19:13:30.051Z,5.46
2023-12-30T19:15:57.682Z,5.45
2023-12-30T19:18:26.553Z,5.46
2023-12-30T19:20:55.589Z,5.45
2023-12-30T19:23:23.247Z,5.49
2023-12-30T19:25:51.128Z,5.53
2023-12-30T19:28:18.816Z,5.47
2023-12-30T19:30:46.464Z,5.49
2023-12-30T19:33:15.206Z,5.53
2023-12-30T19:35:44.954Z,5.56
2023-12-30T19:38:13.065Z,5.50
2023-12-30T19:40:45.942Z,5.58
2023-12-30T19:43:14.486Z,5.60
2023-12-30T19:45:42.141Z,5.67
2023-12-30T19:48:09.792Z,5.69
2023-12-30T19:50:38.074Z,5.73
2023-12-30T19:53:06.963Z,5.80
2023-12-30T19:55:34.587Z,5.77
2023-12-30T19:58:02.281Z,5.77
2023-12-30T20:00:29.848Z,5.77
2023-12-30T20:02:57.400Z,5.78
2023-12-30T20:05:25.126Z,5.77
2023-12-30T20:07:52.699Z,5.76
2023-12-30T20:10:21.647Z,5.78
2023-12-30T20:12:49.387Z,5.72
2023-12-30T20:15:17.947Z,5.72
2023-12-30T20:17:46.399Z,5.73
2023-12-30T20:20:14.206Z,5.73
2023-12-30T20:22:42.346Z,5.67
2023-12-30T20:25:10.158Z,5.58
2023-12-30T20:27:41.466Z,5.58
2023-12-30T20:30:10.307Z,5.56
2023-12-30T20:32:41.768Z,5.44
2023-12-30T20:35:09.732Z,5.45
2023-12-30T20:37:37.557Z,5.45
2023-12-30T20:40:07.178Z,5.48
2023-12-30T20:42:36.338Z,5.46
2023-12-30T20:45:06.372Z,5.44
2023-12-30T20:47:34.697Z,5.38
2023-12-30T20:50:03.905Z,5.40
2023-12-30T20:52:32.275Z,5.38
2023-12-30T20:55:14.405Z,5.41
2023-12-30T20:57:45.187Z,5.44
2023-12-30T21:00:15.490Z,5.42
2023-12-30T21:02:44.311Z,5.36
2023-12-30T21:05:11.824Z,5.33
2023-12-30T21:07:42.701Z,5.29
2023-12-30T21:10:11.624Z,5.30
2023-12-30T21:12:39.335Z,5.23
2023-12-30T21:15:07.824Z,5.29
2023-12-30T21:17:39.939Z,5.33
2023-12-30T21:20:11.001Z,5.28
2023-12-30T21:22:40.410Z,5.27
2023-12-30T21:25:16.164Z,5.28
2023-12-30T21:27:50.986Z,5.35
2023-12-30T21:30:19.030Z,5.41
2023-12-30T21:32:50.624Z,5.45
2023-12-30T21:35:19.512Z,5.44
2023-12-30T21:37:48.469Z,5.45
2023-12-30T21:40:18.760Z,5.55
2023-12-30T21:42:46.863Z,5.59
2023-12-30T21:45:14.509Z,5.59
2023-12-30T21:47:42.705Z,5.60
2023-12-30T21:50:12.079Z,5.64
2023-12-30T21:52:39.841Z,5.62
2023-12-30T21:55:09.192Z,5.69
2023-12-30T21:57:36.826Z,5.72
2023-12-30T22:00:05.700Z,5.72
2023-12-30T22:02:35.226Z,5.74
2023-12-30T22:05:03.093Z,5.70
2023-12-30T22:07:32.914Z,5.74
2023-12-30T22:10:01.128Z,5.75
2023-12-30T22:12:32.196Z,5.78
2023-12-30T22:15:00.552Z,5.87
2023-12-30T22:17:28.506Z,5.83
2023-12-30T22:19:57.630Z,5.75
2023-12-30T22:22:25.225Z,5.73
2023-12-30T22:24:54.179Z,5.78
2023-12-30T22:27:21.715Z,5.76
2023-12-30T22:29:49.606Z,5.73
2023-12-30T22:32:18.342Z,5.66
2023-12-30T22:34:45.947Z,5.70
2023-12-30T22:37:13.507Z,5.79
2023-12-30T22:39:41.072Z,5.83
2023-12-30T22:42:10.069Z,5.92
2023-12-30T22:44:38.911Z,5.93
2023-12-30T22:47:06.881Z,5.93
2023-12-30T22:49:34.485Z,5.93
2023-12-30T22:52:02.184Z,5.86
2023-12-30T22:54:29.737Z,5.88
2023-12-30T22:56:59.214Z,5.92
2023-12-30T22:59:28.032Z,5.93
2023-12-30T23:01:58.478Z,5.93
2023-12-30T23:04:26.051Z,5.84
2023-12-30T23:06:53.661Z,5.83
2023-12-30T23:09:21.652Z,5.86
2023-12-30T23:11:49.203Z,5.81
2023-12-30T23:14:16.880Z,5.79
2023-12-30T23:16:46.682Z,5.82
2023-12-30T23:19:14.267Z,5.79
2023-12-30T23:21:41.809Z,5.81
2023-12-30T23:24:09.406Z,5.82
2023-12-30T23:26:37.630Z,5.83
2023-12-30T23:29:05.161Z,5.81
2023-12-30T23:31:32.720Z,5.90
2023-12-30T23:34:01.649Z,5.93
2023-12-30T23:36:29.201Z,5.91
2023-12-30T23:38:56.781Z,5.87
2023-12-30T23:41:24.345Z,5.87
2023-12-30T23:43:53.209Z,5.93
2023-12-30T23:46:20.754Z,5.88
2023-12-30T23:48:48.362Z,5.90
2023-12-30T23:51:17.248Z,5.90
2023-12-30T23:53:44.822Z,5.85
2023-12-30T23:56:12.374Z,5.93
2023-12-30T23:58:40.000Z,5.93
